Time;durP1;ratioP1;P1;durP2;ratioP2;P2;SDS_P1;SDS_P2;PMS_P1;PMS_P2;Temp;Humidity;BMP_temperature;BMP_pressure;BME280_temperature;BME280_humidity;BME280_pressure;Samples;Min_cycle;Max_cycle;Signal;HPM_P1;HPM_P2
2022/06/07 00:01:09;;;;;;;5.40;4.28;;;20.90;99.90;;;;;;5070366;28;20210;-74
2022/06/07 00:03:36;;;;;;;5.15;4.65;;;20.90;99.90;;;;;;5070055;28;20690;-74
2022/06/07 00:06:03;;;;;;;6.72;4.47;;;20.90;99.90;;;;;;5070340;28;20211;-74
2022/06/07 00:08:31;;;;;;;5.20;4.70;;;20.80;99.90;;;;;;5069844;28;20230;-73
2022/06/07 00:10:59;;;;;;;5.38;4.32;;;20.70;99.90;;;;;;5069978;28;20674;-74
2022/06/07 00:13:26;;;;;;;7.22;4.78;;;20.60;99.90;;;;;;5070188;28;20202;-73
2022/06/07 00:15:54;;;;;;;4.47;4.15;;;20.60;99.90;;;;;;5070603;28;20638;-73
2022/06/07 00:18:21;;;;;;;5.20;4.70;;;20.50;99.90;;;;;;5071849;28;20252;-74
2022/06/07 00:20:48;;;;;;;6.07;5.57;;;20.60;99.90;;;;;;5073875;28;20324;-74
2022/06/07 00:23:17;;;;;;;5.00;4.50;;;20.60;99.90;;;;;;5074089;28;20237;-74
2022/06/07 00:25:49;;;;;;;4.32;4.03;;;20.60;99.90;;;;;;5073464;28;20210;-74
2022/06/07 00:28:17;;;;;;;4.85;4.45;;;20.50;99.90;;;;;;5073546;28;20206;-74
2022/06/07 00:30:45;;;;;;;4.75;4.35;;;20.60;99.90;;;;;;5073515;28;20221;-74
2022/06/07 00:33:12;;;;;;;5.65;5.15;;;20.50;99.90;;;;;;5074011;28;20260;-74
2022/06/07 00:35:39;;;;;;;5.55;4.45;;;20.40;99.90;;;;;;5073488;28;20206;-74
2022/06/07 00:38:06;;;;;;;5.30;4.75;;;20.40;99.90;;;;;;5073485;28;20232;-72
2022/06/07 00:40:33;;;;;;;5.25;4.85;;;20.30;99.90;;;;;;5073538;28;20242;-72
2022/06/07 00:43:01;;;;;;;4.95;4.28;;;20.30;99.90;;;;;;5073749;28;20210;-72
2022/06/07 00:45:29;;;;;;;5.50;4.85;;;20.30;99.90;;;;;;5073328;28;20257;-71
2022/06/07 00:47:55;;;;;;;4.88;4.40;;;20.20;99.90;;;;;;5073572;28;20272;-71
2022/06/07 00:50:29;;;;;;;5.10;4.50;;;20.10;99.90;;;;;;5073497;28;20287;-71
2022/06/07 00:52:59;;;;;;;4.40;4.10;;;20.10;99.90;;;;;;5073716;28;20202;-71
2022/06/07 00:55:26;;;;;;;5.53;5.13;;;20.00;99.90;;;;;;5073301;28;20570;-73
2022/06/07 00:57:53;;;;;;;6.50;4.28;;;20.00;99.90;;;;;;5073454;28;20240;-73
2022/06/07 01:00:24;;;;;;;5.60;4.50;;;20.10;99.90;;;;;;5073736;28;20210;-75
2022/06/07 01:02:52;;;;;;;5.18;4.45;;;20.10;99.90;;;;;;5073258;28;20206;-73
2022/06/07 01:05:19;;;;;;;5.25;4.28;;;20.00;99.90;;;;;;5073332;28;20238;-74
2022/06/07 01:10:46;;;;;;;5.50;4.97;;;19.90;99.90;;;;;;5072511;28;20244;-76
2022/06/07 01:13:14;;;;;;;6.68;5.00;;;19.90;99.90;;;;;;5073245;28;20722;-78
2022/06/07 01:15:45;;;;;;;3.97;3.70;;;19.80;99.90;;;;;;5072467;28;20202;-76
2022/06/07 01:18:12;;;;;;;5.78;5.28;;;19.80;99.90;;;;;;5073335;28;20205;-75
2022/06/07 01:20:39;;;;;;;4.28;3.88;;;19.80;99.90;;;;;;5072411;28;20206;-77
2022/06/07 01:23:08;;;;;;;4.60;4.20;;;19.70;99.90;;;;;;5073062;28;20206;-77
2022/06/07 01:25:36;;;;;;;5.03;4.18;;;19.70;99.90;;;;;;5072334;28;20207;-74
2022/06/07 01:28:03;;;;;;;4.65;4.28;;;19.70;99.90;;;;;;5072831;28;20201;-74
2022/06/07 01:30:30;;;;;;;5.55;3.80;;;19.60;99.90;;;;;;5071665;28;20230;-77
2022/06/07 01:32:57;;;;;;;4.45;4.05;;;19.60;99.90;;;;;;5072985;28;20678;-75
2022/06/07 01:35:24;;;;;;;4.78;4.28;;;19.50;99.90;;;;;;5072838;28;20678;-74
2022/06/07 01:37:51;;;;;;;8.27;5.55;;;19.50;99.90;;;;;;5072463;28;20213;-74
2022/06/07 01:43:04;;;;;;;5.82;3.75;;;19.40;99.90;;;;;;5072901;28;20287;-74
2022/06/07 01:45:31;;;;;;;4.82;4.05;;;19.30;99.90;;;;;;5071933;28;20735;-73
2022/06/07 01:47:58;;;;;;;4.20;3.78;;;19.30;99.90;;;;;;5072604;28;20633;-73
2022/06/07 01:50:25;;;;;;;8.68;4.10;;;19.30;99.90;;;;;;5072182;28;20229;-73
2022/06/07 01:52:52;;;;;;;4.75;4.35;;;19.30;99.90;;;;;;5070734;28;20206;-73
2022/06/07 01:55:21;;;;;;;4.20;3.90;;;19.40;99.90;;;;;;5071972;28;20674;-74
2022/06/07 01:57:47;;;;;;;6.20;4.55;;;19.30;99.90;;;;;;5071889;28;20228;-74
2022/06/07 02:00:16;;;;;;;4.25;3.95;;;19.40;99.90;;;;;;5072175;28;20210;-74
2022/06/07 02:02:42;;;;;;;6.40;5.07;;;19.30;99.90;;;;;;5071830;28;20206;-73
2022/06/07 02:05:10;;;;;;;4.45;4.05;;;19.40;99.90;;;;;;5072171;28;20210;-72
2022/06/07 02:07:37;;;;;;;5.20;4.45;;;19.30;99.90;;;;;;5071635;28;20263;-73
2022/06/07 02:10:05;;;;;;;4.28;3.97;;;19.40;99.90;;;;;;5071777;28;20230;-73
2022/06/07 02:12:33;;;;;;;4.63;3.50;;;19.40;99.90;;;;;;5071763;28;20244;-73
2022/06/07 02:15:01;;;;;;;4.43;4.03;;;19.50;99.90;;;;;;5071887;28;20585;-73
2022/06/07 02:17:28;;;;;;;4.75;4.35;;;19.40;99.90;;;;;;5071472;28;20580;-73
2022/06/07 02:19:55;;;;;;;5.20;3.85;;;19.30;99.90;;;;;;5071706;28;20248;-72
2022/06/07 02:22:22;;;;;;;4.97;4.57;;;19.30;99.90;;;;;;5072047;28;20210;-71
2022/06/07 02:24:49;;;;;;;4.68;4.28;;;19.30;99.90;;;;;;5071390;28;20221;-73
2022/06/07 02:27:19;;;;;;;5.85;4.70;;;19.20;99.90;;;;;;5071566;28;20232;-72
2022/06/07 02:29:50;;;;;;;4.80;4.20;;;19.30;99.90;;;;;;5071259;28;20709;-72
2022/06/07 02:32:21;;;;;;;4.65;4.25;;;19.20;99.90;;;;;;5057608;28;20252;-72
2022/06/07 02:34:52;;;;;;;4.90;4.40;;;19.20;99.90;;;;;;5071101;28;20271;-72
2022/06/07 02:37:19;;;;;;;4.63;4.22;;;19.20;99.90;;;;;;5071082;28;20684;-72
2022/06/07 02:39:46;;;;;;;4.68;4.28;;;19.20;99.90;;;;;;5071227;28;20256;-72
2022/06/07 02:42:16;;;;;;;6.13;4.03;;;19.20;99.90;;;;;;5070525;28;20202;-73
2022/06/07 02:44:43;;;;;;;5.70;5.20;;;19.20;99.90;;;;;;5071011;28;20255;-72
2022/06/07 02:47:12;;;;;;;5.68;5.18;;;19.20;99.90;;;;;;5070928;28;20252;-72
2022/06/07 02:49:39;;;;;;;4.63;4.00;;;19.20;99.90;;;;;;5070712;28;20709;-72
2022/06/07 02:52:07;;;;;;;7.32;4.65;;;19.40;99.90;;;;;;5070814;28;20206;-73
2022/06/07 02:54:34;;;;;;;4.28;3.97;;;19.50;99.90;;;;;;5070923;28;20301;-71
2022/06/07 02:57:01;;;;;;;5.10;4.70;;;19.40;99.90;;;;;;5071019;28;20256;-71
2022/06/07 02:59:28;;;;;;;4.15;3.85;;;19.40;99.90;;;;;;5070653;28;20210;-76
2022/06/07 03:01:55;;;;;;;4.63;4.22;;;19.30;99.90;;;;;;5070687;28;20210;-74
2022/06/07 03:04:24;;;;;;;6.93;4.85;;;19.30;99.90;;;;;;5071217;28;20201;-75
2022/06/07 03:06:51;;;;;;;4.95;4.55;;;19.20;99.90;;;;;;5070926;28;20206;-75
2022/06/07 03:09:18;;;;;;;5.53;4.13;;;19.20;99.90;;;;;;5070754;28;20255;-74
2022/06/07 03:11:44;;;;;;;4.65;4.25;;;19.20;99.90;;;;;;5070453;28;20731;-76
2022/06/07 03:14:12;;;;;;;5.03;3.90;;;19.30;99.90;;;;;;5070720;28;20240;-73
2022/06/07 03:16:39;;;;;;;3.85;3.55;;;19.30;99.90;;;;;;5056677;28;20260;-73
2022/06/07 03:19:06;;;;;;;3.95;3.65;;;19.20;99.90;;;;;;5071030;28;20264;-73
2022/06/07 03:21:35;;;;;;;4.25;3.88;;;19.20;99.90;;;;;;5069915;28;20578;-73
2022/06/07 03:24:02;;;;;;;10.77;4.53;;;19.20;99.90;;;;;;5070755;28;20651;-74
2022/06/07 03:26:29;;;;;;;6.28;4.50;;;19.20;99.90;;;;;;5070332;28;20654;-72
2022/06/07 03:28:56;;;;;;;7.50;4.78;;;19.20;99.90;;;;;;5070598;28;20202;-73
2022/06/07 03:31:23;;;;;;;5.07;4.03;;;19.10;99.90;;;;;;5070636;28;20283;-74
2022/06/07 03:33:51;;;;;;;3.60;3.30;;;19.10;99.90;;;;;;5070706;28;20263;-73
2022/06/07 03:36:21;;;;;;;6.05;3.97;;;19.10;99.90;;;;;;5070385;28;20682;-74
2022/06/07 03:38:50;;;;;;;3.97;3.67;;;19.10;99.90;;;;;;5056759;28;20206;-72
2022/06/07 03:41:19;;;;;;;4.40;4.10;;;19.20;99.90;;;;;;5070430;28;20214;-72
2022/06/07 03:43:46;;;;;;;4.32;4.00;;;19.20;99.90;;;;;;5069875;28;20627;-74
2022/06/07 03:46:15;;;;;;;3.72;3.42;;;19.20;99.90;;;;;;5070427;28;20210;-73
2022/06/07 03:48:43;;;;;;;4.63;4.22;;;19.10;99.90;;;;;;5069718;28;20206;-73
2022/06/07 03:51:12;;;;;;;4.93;3.97;;;19.10;99.90;;;;;;5070216;28;20242;-73
2022/06/07 03:53:39;;;;;;;4.63;4.25;;;19.00;99.90;;;;;;5069502;28;20214;-73
2022/06/07 03:56:08;;;;;;;5.40;4.10;;;19.00;99.90;;;;;;5070344;28;20693;-72
2022/06/07 03:58:37;;;;;;;4.07;3.40;;;19.00;99.90;;;;;;5069681;28;20260;-72
2022/06/07 04:01:04;;;;;;;4.38;3.80;;;19.00;99.90;;;;;;5070127;28;20582;-72
2022/06/07 04:03:31;;;;;;;3.92;3.60;;;19.00;99.90;;;;;;5070046;28;20267;-72
2022/06/07 04:05:59;;;;;;;3.95;3.65;;;19.00;99.90;;;;;;5070128;28;20202;-73
2022/06/07 04:08:26;;;;;;;4.13;3.63;;;19.10;99.90;;;;;;5070211;28;20214;-73
2022/06/07 04:10:55;;;;;;;4.05;3.75;;;19.00;99.90;;;;;;5070469;28;20237;-73
2022/06/07 04:13:25;;;;;;;3.70;3.40;;;19.00;99.90;;;;;;5070762;28;20217;-73
2022/06/07 04:15:53;;;;;;;3.42;3.10;;;19.10;99.90;;;;;;5070516;28;20214;-72
2022/06/07 04:18:21;;;;;;;5.95;3.83;;;19.20;99.90;;;;;;5070502;28;20198;-73
2022/06/07 04:20:48;;;;;;;4.03;3.60;;;19.20;99.90;;;;;;5069541;28;20206;-74
2022/06/07 04:23:18;;;;;;;4.60;4.07;;;19.20;99.90;;;;;;5069880;28;20807;-74
2022/06/07 04:25:45;;;;;;;4.18;3.42;;;19.10;99.90;;;;;;5069633;28;20700;-73
2022/06/07 04:28:13;;;;;;;3.83;3.53;;;19.20;99.90;;;;;;5070068;28;20206;-72
2022/06/07 04:30:45;;;;;;;3.30;3.00;;;19.20;99.90;;;;;;5069594;28;20233;-74
2022/06/07 04:33:13;;;;;;;4.15;3.85;;;19.00;99.90;;;;;;5069703;28;20210;-73
2022/06/07 04:35:42;;;;;;;3.13;2.92;;;19.20;99.90;;;;;;5069260;28;20293;-73
2022/06/07 04:38:10;;;;;;;3.67;3.38;;;19.10;99.90;;;;;;5069579;28;20211;-74
2022/06/07 04:40:38;;;;;;;4.00;2.72;;;19.10;99.90;;;;;;5069511;28;20293;-73
2022/06/07 04:43:06;;;;;;;3.35;2.72;;;19.10;99.90;;;;;;5069863;28;20263;-73
2022/06/07 04:45:33;;;;;;;4.40;4.10;;;19.00;99.90;;;;;;5069264;28;20263;-73
2022/06/07 04:48:01;;;;;;;2.38;2.22;;;19.10;99.90;;;;;;5069216;28;20210;-72
2022/06/07 04:50:28;;;;;;;3.60;2.70;;;19.20;99.90;;;;;;5068782;28;20233;-73
2022/06/07 04:52:55;;;;;;;2.72;2.53;;;19.10;99.90;;;;;;5069765;28;20206;-72
2022/06/07 04:55:22;;;;;;;3.15;2.88;;;19.00;99.90;;;;;;5069343;28;20584;-72
2022/06/07 04:57:49;;;;;;;5.28;2.85;;;19.00;99.90;;;;;;5067974;28;20605;-72
2022/06/07 05:00:18;;;;;;;2.97;2.72;;;18.90;99.90;;;;;;5068905;28;20335;-72
2022/06/07 05:02:46;;;;;;;2.53;2.33;;;19.10;99.90;;;;;;5069228;28;20210;-72
2022/06/07 05:05:16;;;;;;;2.67;2.25;;;19.20;99.90;;;;;;5061047;28;20210;-72
2022/06/07 05:07:43;;;;;;;2.80;2.60;;;19.20;99.90;;;;;;5073068;28;20210;-76
2022/06/07 05:10:13;;;;;;;4.95;2.47;;;19.30;99.90;;;;;;5072978;28;20706;-72
2022/06/07 05:12:40;;;;;;;3.28;2.95;;;19.40;99.90;;;;;;5072624;28;20296;-72
2022/06/07 05:15:09;;;;;;;3.47;2.83;;;19.40;99.90;;;;;;5072926;28;20578;-72
2022/06/07 05:17:36;;;;;;;2.97;2.75;;;19.30;99.90;;;;;;5072652;28;20212;-74
2022/06/07 05:20:03;;;;;;;2.38;2.17;;;19.20;99.90;;;;;;5059229;28;20214;-73
2022/06/07 05:22:31;;;;;;;4.00;2.40;;;19.10;99.90;;;;;;5072511;28;20259;-73
2022/06/07 05:24:58;;;;;;;2.75;2.55;;;19.10;99.90;;;;;;5072815;28;20273;-74
2022/06/07 05:27:27;;;;;;;2.97;2.53;;;19.10;99.90;;;;;;5072930;28;20202;-73
2022/06/07 05:29:56;;;;;;;3.92;2.40;;;19.20;99.90;;;;;;5073096;28;20267;-72
2022/06/07 05:32:26;;;;;;;3.88;2.58;;;19.10;99.90;;;;;;5073715;28;20206;-74
2022/06/07 05:34:54;;;;;;;2.55;2.35;;;19.20;99.90;;;;;;5067469;28;20206;-72
2022/06/07 05:37:23;;;;;;;5.00;2.30;;;19.20;99.90;;;;;;5077424;28;20203;-75
2022/06/07 05:39:51;;;;;;;3.28;2.40;;;19.30;99.90;;;;;;5075206;28;20202;-73
2022/06/07 05:42:19;;;;;;;2.38;2.17;;;19.30;99.90;;;;;;5080321;28;20210;-71
2022/06/07 05:44:46;;;;;;;2.47;2.28;;;19.20;99.90;;;;;;5082020;28;20209;-74
2022/06/07 05:47:13;;;;;;;2.85;2.65;;;19.20;99.90;;;;;;5080303;28;20263;-79
2022/06/07 05:49:40;;;;;;;3.03;2.42;;;19.20;99.90;;;;;;5070298;28;20249;-78
2022/06/07 05:52:08;;;;;;;4.38;3.38;;;19.20;99.90;;;;;;5080025;28;20258;-75
2022/06/07 05:54:38;;;;;;;9.15;3.63;;;19.30;99.90;;;;;;5078160;28;20202;-72
2022/06/07 05:57:07;;;;;;;2.20;1.95;;;19.30;99.90;;;;;;5079276;28;20580;-73
2022/06/07 05:59:35;;;;;;;2.40;2.20;;;19.30;99.90;;;;;;5082376;28;20206;-72
2022/06/07 06:02:02;;;;;;;3.03;2.72;;;19.30;99.90;;;;;;5076234;28;20629;-76
2022/06/07 06:04:29;;;;;;;4.13;2.10;;;19.40;99.90;;;;;;5072681;28;20593;-74
2022/06/07 06:06:57;;;;;;;2.38;2.17;;;19.40;99.90;;;;;;5072785;28;20210;-73
2022/06/07 06:12:11;;;;;;;3.50;2.00;;;19.40;99.90;;;;;;5064505;28;20244;-73
2022/06/07 06:14:38;;;;;;;2.60;1.95;;;19.40;99.90;;;;;;5071044;28;20214;-73
2022/06/07 06:17:06;;;;;;;3.28;2.97;;;19.50;99.90;;;;;;5071780;28;20205;-73
2022/06/07 06:19:33;;;;;;;2.15;1.95;;;19.50;99.90;;;;;;5071125;28;20633;-72
2022/06/07 06:22:00;;;;;;;1.90;1.73;;;19.50;99.90;;;;;;5071858;28;20210;-72
2022/06/07 06:24:27;;;;;;;1.90;1.80;;;19.50;99.90;;;;;;5061839;28;20694;-73
2022/06/07 06:26:54;;;;;;;2.10;1.90;;;19.60;99.90;;;;;;5064223;28;20634;-73
2022/06/07 06:29:24;;;;;;;3.33;2.55;;;19.60;99.90;;;;;;5071642;28;20261;-73
2022/06/07 06:31:52;;;;;;;2.65;1.83;;;19.70;99.90;;;;;;5074588;28;20309;-75
2022/06/07 06:34:19;;;;;;;2.80;2.08;;;19.70;99.90;;;;;;5075704;28;20255;-72
2022/06/07 06:36:47;;;;;;;2.92;2.20;;;19.60;99.90;;;;;;5072860;28;20293;-73
2022/06/07 06:39:15;;;;;;;2.28;2.08;;;19.60;99.90;;;;;;5080962;28;20301;-72
2022/06/07 06:41:45;;;;;;;2.20;2.00;;;19.80;99.90;;;;;;5070269;28;20274;-73
2022/06/07 06:44:12;;;;;;;1.77;1.67;;;19.80;99.90;;;;;;5071119;28;20202;-73
2022/06/07 06:46:43;;;;;;;1.73;1.63;;;19.90;99.90;;;;;;5073915;28;20259;-74
2022/06/07 06:49:14;;;;;;;1.10;1.00;;;20.00;99.90;;;;;;5073267;28;20214;-73
2022/06/07 06:51:42;;;;;;;1.60;1.50;;;20.00;99.90;;;;;;5076070;28;20226;-76
2022/06/07 06:54:12;;;;;;;3.17;1.80;;;20.10;99.90;;;;;;5074276;28;20201;-72
2022/06/07 06:56:40;;;;;;;2.17;1.98;;;20.10;99.90;;;;;;5077153;28;20202;-72
2022/06/07 06:59:08;;;;;;;1.90;1.73;;;20.30;99.90;;;;;;5075001;28;20263;-73
2022/06/07 07:01:38;;;;;;;3.58;1.67;;;20.70;99.90;;;;;;5074917;28;20592;-72
2022/06/07 07:04:09;;;;;;;2.42;1.40;;;20.90;99.90;;;;;;5072052;28;20209;-73
2022/06/07 07:06:37;;;;;;;2.25;2.10;;;21.00;99.90;;;;;;5071320;28;20206;-73
2022/06/07 07:09:05;;;;;;;4.13;1.55;;;21.10;99.90;;;;;;5073597;28;20308;-72
2022/06/07 07:11:35;;;;;;;1.60;1.50;;;21.40;99.90;;;;;;5084540;28;20267;-72
2022/06/07 07:14:03;;;;;;;2.63;1.40;;;21.50;99.90;;;;;;5074236;28;20713;-72
2022/06/07 07:16:32;;;;;;;2.15;1.60;;;21.50;99.90;;;;;;5074398;28;20256;-71
2022/06/07 07:19:01;;;;;;;2.03;1.80;;;21.30;99.90;;;;;;5063879;28;20282;-72
2022/06/07 07:21:33;;;;;;;2.78;1.48;;;21.00;99.90;;;;;;5070253;28;20202;-71
2022/06/07 07:24:01;;;;;;;2.53;1.50;;;21.00;99.90;;;;;;5070887;28;20241;-71
2022/06/07 07:26:30;;;;;;;3.78;1.58;;;21.20;99.90;;;;;;5069962;28;20658;-72
2022/06/07 07:28:58;;;;;;;1.45;1.30;;;21.50;99.90;;;;;;5067995;28;20600;-71
2022/06/07 07:31:30;;;;;;;2.22;1.45;;;22.30;99.90;;;;;;5072615;28;20271;-71
2022/06/07 07:33:57;;;;;;;1.80;1.70;;;22.30;99.90;;;;;;5075919;28;20288;-73
2022/06/07 07:36:24;;;;;;;2.38;1.77;;;22.20;99.90;;;;;;5074041;28;20313;-70
2022/06/07 07:38:53;;;;;;;2.30;1.75;;;22.40;99.90;;;;;;5076436;28;20209;-71
2022/06/07 07:41:23;;;;;;;3.78;2.42;;;22.40;99.90;;;;;;5082793;28;20685;-70
2022/06/07 07:43:52;;;;;;;3.22;2.10;;;22.50;99.90;;;;;;5070561;28;20252;-71
2022/06/07 07:46:21;;;;;;;2.20;2.03;;;22.30;99.90;;;;;;5076982;28;20692;-72
2022/06/07 07:48:49;;;;;;;2.88;1.58;;;22.20;99.90;;;;;;5079084;28;20252;-73
2022/06/07 07:51:19;;;;;;;2.20;1.80;;;22.20;99.90;;;;;;5084963;28;20244;-73
2022/06/07 07:53:47;;;;;;;2.58;2.33;;;21.80;99.90;;;;;;5081586;28;20228;-72
2022/06/07 07:56:16;;;;;;;2.10;1.55;;;21.80;99.90;;;;;;5085379;28;20596;-73
2022/06/07 07:58:43;;;;;;;1.70;1.60;;;22.10;99.90;;;;;;5083747;28;20577;-71
2022/06/07 08:01:12;;;;;;;2.00;1.90;;;22.10;99.90;;;;;;5081757;28;20283;-71
2022/06/07 08:03:39;;;;;;;2.22;1.70;;;22.20;99.90;;;;;;5070002;28;20223;-70
2022/06/07 08:06:08;;;;;;;2.17;1.90;;;22.50;99.90;;;;;;5071376;28;20581;-72
2022/06/07 08:08:35;;;;;;;2.60;2.38;;;22.40;99.90;;;;;;5071072;28;20256;-71
2022/06/07 08:11:02;;;;;;;5.90;3.58;;;22.30;99.90;;;;;;5073324;28;20225;-71
2022/06/07 08:13:30;;;;;;;2.72;2.05;;;22.40;99.90;;;;;;5070710;28;20210;-72
2022/06/07 08:15:58;;;;;;;3.00;2.28;;;22.30;99.90;;;;;;5069908;28;20202;-73
2022/06/07 08:18:25;;;;;;;1.83;1.73;;;21.70;99.90;;;;;;5070064;28;20198;-72
2022/06/07 08:20:57;;;;;;;4.70;2.40;;;21.20;99.90;;;;;;5070216;28;20228;-72
2022/06/07 08:23:24;;;;;;;3.03;1.90;;;21.00;99.90;;;;;;5064419;28;20229;-73
2022/06/07 08:25:51;;;;;;;8.15;2.90;;;21.40;99.90;;;;;;5067097;28;20248;-74
2022/06/07 08:28:18;;;;;;;2.45;2.25;;;21.70;99.90;;;;;;5072127;28;20232;-73
2022/06/07 08:30:49;;;;;;;1.88;1.77;;;21.90;99.90;;;;;;5072886;28;20634;-73
2022/06/07 08:38:46;;;;;;;4.85;2.10;;;21.10;99.90;;;;;;5065602;28;20213;-71
2022/06/07 08:41:22;;;;;;;1.83;1.60;;;20.80;99.90;;;;;;5080678;28;20271;-71
2022/06/07 08:43:50;;;;;;;2.58;2.17;;;20.60;99.90;;;;;;5079468;28;20235;-72
2022/06/07 08:46:23;;;;;;;2.83;2.55;;;20.50;99.90;;;;;;5084377;28;20201;-72
2022/06/07 08:48:50;;;;;;;2.15;1.60;;;20.40;99.90;;;;;;5081378;28;20263;-72
2022/06/07 08:51:25;;;;;;;3.90;2.03;;;20.30;99.90;;;;;;5085508;28;20326;-71
2022/06/07 08:53:54;;;;;;;2.42;2.22;;;20.30;99.90;;;;;;5082825;28;20205;-72
2022/06/07 08:56:25;;;;;;;2.38;2.15;;;20.30;99.90;;;;;;5087143;28;20198;-72
2022/06/07 08:58:54;;;;;;;3.75;2.13;;;20.40;99.90;;;;;;5084739;28;20202;-69
2022/06/07 09:01:31;;;;;;;2.60;2.28;;;20.40;99.90;;;;;;5082464;28;20305;-73
2022/06/07 09:04:07;;;;;;;2.97;2.42;;;20.40;99.90;;;;;;5073984;28;20256;-73
2022/06/07 09:06:36;;;;;;;2.30;1.77;;;20.40;99.90;;;;;;5062281;28;20262;-71
2022/06/07 09:09:05;;;;;;;4.82;2.60;;;20.40;99.90;;;;;;5075630;28;20556;-73
2022/06/07 09:14:25;;;;;;;3.40;2.70;;;20.20;99.90;;;;;;5078211;28;20753;-73
2022/06/07 09:16:55;;;;;;;2.20;2.05;;;20.40;99.90;;;;;;5076091;28;20686;-73
2022/06/07 09:19:25;;;;;;;4.07;2.80;;;20.40;99.90;;;;;;5079990;28;20205;-73
2022/06/07 09:21:54;;;;;;;2.45;2.03;;;20.40;99.90;;;;;;5077466;28;20264;-72
2022/06/07 09:24:28;;;;;;;3.00;2.75;;;20.50;99.90;;;;;;5074247;28;20203;-71
2022/06/07 09:27:05;;;;;;;2.38;2.17;;;20.60;99.90;;;;;;5066905;28;20207;-73
2022/06/07 09:29:36;;;;;;;3.28;2.40;;;20.70;99.90;;;;;;5083064;28;20209;-74
2022/06/07 09:32:10;;;;;;;4.30;2.60;;;20.80;99.90;;;;;;5073792;28;20328;-73
2022/06/07 09:34:38;;;;;;;3.17;2.70;;;20.90;99.90;;;;;;5072745;28;20709;-73
2022/06/07 09:37:08;;;;;;;3.83;2.63;;;21.00;99.90;;;;;;5078766;28;20212;-72
2022/06/07 09:39:39;;;;;;;3.33;2.53;;;20.90;99.90;;;;;;5071807;28;20683;-72
2022/06/07 09:42:17;;;;;;;3.97;2.28;;;20.90;99.90;;;;;;5072452;28;20275;-74
2022/06/07 09:44:57;;;;;;;3.22;2.20;;;21.00;99.90;;;;;;5071763;28;20739;-73
2022/06/07 09:47:26;;;;;;;5.32;2.90;;;20.90;99.90;;;;;;5067925;28;20249;-74
2022/06/07 09:49:58;;;;;;;11.88;2.80;;;20.90;99.90;;;;;;5081829;28;20209;-73
2022/06/07 09:52:27;;;;;;;6.45;2.50;;;20.80;99.90;;;;;;5078485;28;20313;-73
2022/06/07 09:54:58;;;;;;;5.38;2.95;;;20.80;99.90;;;;;;5088837;28;20212;-73
2022/06/07 09:57:38;;;;;;;7.28;2.67;;;20.50;99.90;;;;;;5079393;28;20198;-73
2022/06/07 10:00:17;;;;;;;5.68;3.22;;;20.70;99.90;;;;;;5072240;28;20206;-73
2022/06/07 10:03:04;;;;;;;11.48;3.25;;;20.80;99.90;;;;;;5071541;28;20373;-74
2022/06/07 10:05:36;;;;;;;7.63;2.53;;;20.70;99.90;;;;;;5072037;28;20202;-74
2022/06/07 10:08:13;;;;;;;6.72;1.95;;;20.60;99.90;;;;;;5071937;28;20206;-73
2022/06/07 10:10:48;;;;;;;2.00;1.90;;;20.70;99.90;;;;;;5071739;28;20628;-74
2022/06/07 10:13:29;;;;;;;4.43;2.05;;;20.70;99.90;;;;;;5058032;28;20706;-74
2022/06/07 10:16:04;;;;;;;2.47;1.45;;;20.70;99.90;;;;;;5072105;28;20210;-75
2022/06/07 10:18:46;;;;;;;2.42;1.67;;;20.90;99.90;;;;;;5071665;28;20210;-75
2022/06/07 10:21:35;;;;;;;3.65;1.88;;;20.90;99.90;;;;;;5071547;28;20210;-74
2022/06/07 10:24:17;;;;;;;3.33;1.77;;;21.10;99.90;;;;;;5072021;28;20267;-74
2022/06/07 10:26:57;;;;;;;4.72;2.20;;;21.40;99.90;;;;;;5071543;28;20259;-74
2022/06/07 10:29:40;;;;;;;2.05;1.88;;;21.80;99.90;;;;;;5071805;28;20224;-74
2022/06/07 10:32:18;;;;;;;2.35;1.80;;;22.00;99.90;;;;;;5068250;28;20612;-74
2022/06/07 10:34:51;;;;;;;2.65;2.15;;;22.20;99.90;;;;;;5071008;28;20638;-72
2022/06/07 10:37:26;;;;;;;3.63;2.50;;;22.00;99.90;;;;;;5071285;28;20268;-73
2022/06/07 10:40:06;;;;;;;6.85;2.97;;;21.90;99.90;;;;;;5069222;28;20208;-74
2022/06/07 10:42:40;;;;;;;4.80;2.83;;;21.90;99.90;;;;;;5062180;28;20217;-73
2022/06/07 10:45:15;;;;;;;3.72;2.38;;;21.60;99.90;;;;;;5074340;28;20742;-73
2022/06/07 10:47:47;;;;;;;4.25;2.90;;;21.40;99.90;;;;;;5065393;28;20665;-73
2022/06/07 10:50:19;;;;;;;4.03;1.95;;;21.30;99.90;;;;;;5076134;28;20205;-73
2022/06/07 10:52:55;;;;;;;2.92;1.98;;;21.40;99.90;;;;;;5063688;28;20230;-74
2022/06/07 10:55:30;;;;;;;3.00;2.13;;;21.60;99.90;;;;;;5071318;28;20267;-75
2022/06/07 10:58:05;;;;;;;4.15;2.47;;;21.50;99.90;;;;;;5071206;28;20256;-74
2022/06/07 11:00:37;;;;;;;2.95;1.80;;;21.80;99.90;;;;;;5068062;28;20281;-75
2022/06/07 11:03:18;;;;;;;2.95;2.13;;;22.10;99.90;;;;;;5056642;28;20210;-73
2022/06/07 11:11:24;;;;;;;2.17;2.03;;;22.30;99.90;;;;;;5071336;28;20213;-72
2022/06/07 11:14:06;;;;;;;2.08;1.55;;;22.50;99.90;;;;;;5071088;28;20355;-74
2022/06/07 11:16:40;;;;;;;3.20;2.55;;;22.60;99.90;;;;;;5070397;28;20228;-76
2022/06/07 11:19:10;;;;;;;4.75;2.50;;;22.70;99.90;;;;;;5070562;28;20202;-73
2022/06/07 11:21:42;;;;;;;4.88;2.55;;;22.80;99.90;;;;;;5070456;28;20581;-73
2022/06/07 11:24:21;;;;;;;3.92;2.25;;;23.00;99.90;;;;;;5060529;28;20210;-73
2022/06/07 11:27:23;;;;;;;3.95;1.90;;;23.00;99.90;;;;;;5065644;28;20205;-72
2022/06/07 11:30:10;;;;;;;3.72;2.28;;;23.10;99.90;;;;;;5081819;28;20259;-73
2022/06/07 11:32:53;;;;;;;2.58;2.10;;;23.10;99.90;;;;;;5078023;28;20233;-72
2022/06/07 11:35:47;;;;;;;3.35;2.70;;;23.20;99.90;;;;;;5084307;28;20288;-72
2022/06/07 11:38:33;;;;;;;6.10;2.33;;;23.10;99.90;;;;;;5085942;28;20217;-72
2022/06/07 11:41:40;;;;;;;2.75;2.38;;;23.30;99.90;;;;;;5069380;28;20213;-72
2022/06/07 11:44:50;;;;;;;1.70;1.50;;;23.80;99.90;;;;;;5066616;28;20205;-72
2022/06/07 11:47:27;;;;;;;4.53;2.50;;;23.70;99.90;;;;;;5077589;28;20672;-73
2022/06/07 11:50:00;;;;;;;3.05;1.52;;;23.40;99.90;;;;;;5089624;28;20278;-73
2022/06/07 11:52:31;;;;;;;2.53;1.90;;;23.50;99.90;;;;;;5063213;28;20225;-73
2022/06/07 11:55:09;;;;;;;3.90;2.30;;;23.30;99.90;;;;;;5072633;28;20206;-73
2022/06/07 11:57:40;;;;;;;2.65;2.03;;;23.00;99.90;;;;;;5066376;28;20202;-73
2022/06/07 12:00:38;;;;;;;2.47;2.28;;;23.00;99.90;;;;;;5078964;28;20205;-72
2022/06/07 12:03:26;;;;;;;5.10;2.83;;;22.80;99.90;;;;;;5073025;28;20746;-72
2022/06/07 12:05:56;;;;;;;2.92;2.47;;;23.00;99.90;;;;;;5076049;28;20310;-72
2022/06/07 12:08:28;;;;;;;4.65;3.08;;;23.30;99.90;;;;;;5079655;28;20329;-71
2022/06/07 12:11:04;;;;;;;3.08;1.92;;;23.40;99.90;;;;;;5075206;28;20232;-73
2022/06/07 12:13:51;;;;;;;3.17;1.90;;;23.30;99.90;;;;;;5069453;28;20241;-73
2022/06/07 12:16:25;;;;;;;3.97;2.03;;;23.10;99.90;;;;;;5064456;28;20205;-74
2022/06/07 12:18:53;;;;;;;4.63;1.33;;;23.00;99.90;;;;;;5075759;28;20206;-74
2022/06/07 12:21:22;;;;;;;3.80;2.22;;;23.10;99.90;;;;;;5078458;28;20266;-74
2022/06/07 12:23:52;;;;;;;3.28;2.47;;;23.10;99.90;;;;;;5076256;28;20206;-73
2022/06/07 12:26:28;;;;;;;2.75;1.73;;;23.20;99.90;;;;;;5078922;28;20673;-74
2022/06/07 12:28:58;;;;;;;3.85;2.10;;;23.20;99.90;;;;;;5074300;28;20206;-73
2022/06/07 12:31:27;;;;;;;2.45;1.45;;;23.30;99.90;;;;;;5081556;28;20251;-75
2022/06/07 12:33:56;;;;;;;3.50;2.13;;;23.30;99.90;;;;;;5078497;28;20237;-73
2022/06/07 12:36:25;;;;;;;3.70;1.92;;;23.30;99.90;;;;;;5078026;28;20259;-74
2022/06/07 12:38:56;;;;;;;4.63;2.63;;;23.10;99.90;;;;;;5079253;28;20582;-73
2022/06/07 12:41:27;;;;;;;2.88;1.65;;;23.10;99.90;;;;;;5067410;28;20214;-73
2022/06/07 12:43:56;;;;;;;2.78;1.85;;;22.90;99.90;;;;;;5073124;28;20206;-73
2022/06/07 12:46:27;;;;;;;5.60;2.17;;;22.70;99.90;;;;;;5086760;28;20268;-74
2022/06/07 12:48:55;;;;;;;4.85;2.60;;;22.60;99.90;;;;;;5081406;28;20677;-74
2022/06/07 12:51:34;;;;;;;3.60;1.98;;;22.60;99.90;;;;;;5079231;28;20203;-75
2022/06/07 12:54:06;;;;;;;4.93;2.13;;;22.70;99.90;;;;;;5082372;28;20614;-75
2022/06/07 12:56:38;;;;;;;2.00;1.80;;;22.60;99.90;;;;;;5087368;28;20213;-75
2022/06/07 12:59:07;;;;;;;3.10;1.50;;;22.50;99.90;;;;;;5083795;28;20219;-76
2022/06/07 13:01:38;;;;;;;2.95;1.67;;;22.80;99.90;;;;;;5075831;28;20203;-75
2022/06/07 13:04:24;;;;;;;2.08;1.88;;;22.90;99.90;;;;;;5067870;28;20210;-74
2022/06/07 13:07:03;;;;;;;5.32;1.85;;;22.80;99.90;;;;;;5070144;28;20590;-76
2022/06/07 13:09:30;;;;;;;3.33;1.40;;;22.90;99.90;;;;;;5073055;28;20669;-77
2022/06/07 13:11:59;;;;;;;3.60;1.67;;;22.90;99.90;;;;;;5072440;28;20738;-75
2022/06/07 13:14:26;;;;;;;3.50;1.70;;;23.10;99.90;;;;;;5074508;28;20230;-77
2022/06/07 13:16:54;;;;;;;3.17;2.50;;;23.10;99.90;;;;;;5074681;28;20268;-74
2022/06/07 13:19:25;;;;;;;2.22;1.85;;;22.90;99.90;;;;;;5076593;28;20206;-75
2022/06/07 13:22:03;;;;;;;2.53;1.77;;;22.70;99.90;;;;;;5075272;28;20252;-76
2022/06/07 13:24:40;;;;;;;3.72;1.95;;;22.50;99.90;;;;;;5063998;28;20253;-76